Pride — ZDFD7 — position and weather

sailwx.info

Track history (hours):
 
Tides and Currents Weather Stations Pressure Air Temp Water Temp Dewpoint Dewpoint Depression Visibility Wind Speed Wind Dir Waves Ship Positions

Pride

Last reported at 2018-Apr-20 16:30 UTC. Time now 2018-Apr-20 16:45 UTC.
Position N 50°40' E 000°36'.

Length 88 m; draft 4.8 m.

Type: Cargo ship. MMSI: 236166000.

Date/timePositionNaut miles runAvg speedWind from/ knotsBaromVisibWave heightAir tempDewpointWater temp
2018-Apr-20 16:30N 50°40' E 000°36'510.0
2018-Apr-20 16:01N 50°43' E 000°42'5 9.4
2018-Apr-20 15:31N 50°45' E 000°48'4 8.8
2018-Apr-20 15:01N 50°48' E 000°54'4 8.4
2018-Apr-20 14:30N 50°50' E 000°60'4 8.2
2018-Apr-20 14:01N 50°53' E 001°05'4 8.4
2018-Apr-20 13:29N 50°56' E 001°10'8 8.7
2018-Apr-20 12:35N 51°01' E 001°20'1 9.5
2018-Apr-20 12:29N 51°01' E 001°21'510.4
2018-Apr-20 12:00N 51°04' E 001°27'612.1
2018-Apr-20 11:31N 51°08' E 001°34'612.7
2018-Apr-20 11:01N 51°12' E 001°42'612.6
2018-Apr-20 10:30N 51°18' E 001°48'612.5
2018-Apr-20 10:00N 51°23' E 001°52'611.3
2018-Apr-20 09:30N 51°28' E 001°57'510.8
2018-Apr-20 09:00N 51°32' E 002°03'510.2
2018-Apr-20 08:29N 51°36' E 002°08'5 9.6
2018-Apr-20 07:59N 51°40' E 002°14'4 9.4
2018-Apr-20 07:30N 51°43' E 002°18'4 8.9
2018-Apr-20 07:00N 51°47' E 002°23'4 8.6
2018-Apr-20 06:30N 51°50' E 002°28'134 9.2
2018-Apr-19 16:00N 53°32' E 004°50'104 9.9
2018-Apr-19 05:31N 54°01' E 007°38'611.2
2018-Apr-19 05:00N 54°02' E 007°48'611.2
2018-Apr-19 04:30N 54°02' E 007°57'611.4
2018-Apr-19 03:59N 54°01' E 008°07'611.7
2018-Apr-19 03:28N 54°01' E 008°17'612.2
2018-Apr-19 03:00N 53°59' E 008°27'510.6
2018-Apr-19 02:30N 53°58' E 008°36'4 8.3
2018-Apr-19 02:00N 53°55' E 008°41'4 8.0
2018-Apr-19 01:30N 53°52' E 008°44'3 6.8
2018-Apr-19 01:00N 53°51' E 008°50'4 7.3
2018-Apr-19 00:30N 53°51' E 008°56'3 6.6
2018-Apr-19 00:00N 53°52' E 009°01'4 7.6
2018-Apr-18 23:30N 53°53' E 009°07'1 2.1
2018-Apr-18 23:00N 53°54' E 009°09'0 0.8
2018-Apr-18 22:30N 53°54' E 009°09'0 0.0
2018-Apr-18 22:00N 53°54' E 009°09'0 0.0
2018-Apr-18 21:30N 53°54' E 009°09'2 3.4
2018-Apr-18 21:00N 53°55' E 009°11'4 8.7
2018-Apr-18 20:30N 53°58' E 009°16'4 8.4
2018-Apr-18 20:00N 54°02' E 009°18'5 8.3
2018-Apr-18 19:24N 54°07' E 009°20'2 6.1
2018-Apr-18 19:00N 54°09' E 009°22'4 7.4
2018-Apr-18 18:31N 54°11' E 009°28'4 8.2
2018-Apr-18 18:01N 54°13' E 009°34'4 8.0
2018-Apr-18 17:30N 54°16' E 009°38'4 7.6
2018-Apr-18 17:00N 54°18' E 009°43'35 5.7
2018-Apr-18 10:54N 54°35' E 010°36'4 9.5
2018-Apr-18 10:31N 54°35' E 010°42'5 9.6
2018-Apr-18 10:00N 54°35' E 010°51'5 9.4
2018-Apr-18 09:30N 54°36' E 010°59'5 9.5
2018-Apr-18 09:00N 54°36' E 011°07'5 9.5
2018-Apr-18 08:30N 54°35' E 011°15'5 9.5
2018-Apr-18 08:00N 54°33' E 011°22'5 9.7
2018-Apr-18 07:31N 54°31' E 011°30'5 9.4
2018-Apr-18 07:01N 54°29' E 011°37'5 9.3
2018-Apr-18 06:31N 54°27' E 011°44'9 9.2
2018-Apr-18 05:30N 54°27' E 012°00'5 9.4
2018-Apr-18 05:00N 54°27' E 012°08'5 9.2
2018-Apr-18 04:30N 54°31' E 012°12'5 9.9
2018-Apr-18 04:00N 54°36' E 012°14'63 9.6
2018-Apr-17 21:25N 55°03' E 013°53'5 9.6
2018-Apr-17 20:57N 55°04' E 014°01'4 9.5
2018-Apr-17 20:29N 55°07' E 014°07'5 9.8
2018-Apr-17 20:00N 55°11' E 014°12'5 9.8
2018-Apr-17 19:30N 55°14' E 014°18'610.0
2018-Apr-17 18:51N 55°20' E 014°25'410.0
2018-Apr-17 18:27N 55°23' E 014°29'5 9.9
2018-Apr-17 18:00N 55°26' E 014°34'6 9.6
2018-Apr-17 17:24N 55°29' E 014°42'4 9.3
2018-Apr-17 17:00N 55°31' E 014°48'5 9.5
2018-Apr-17 16:30N 55°34' E 014°55'5 9.5
2018-Apr-17 15:56N 55°36' E 015°03'5 9.6
2018-Apr-17 15:28N 55°38' E 015°10'4 9.5
2018-Apr-17 15:00N 55°41' E 015°17'5 9.6
2018-Apr-17 14:30N 55°43' E 015°24'5 9.7
2018-Apr-17 14:01N 55°45' E 015°32'5 9.8
2018-Apr-17 13:31N 55°48' E 015°39'5 9.7
2018-Apr-17 13:01N 55°50' E 015°47'5 9.9
2018-Apr-17 12:31N 55°53' E 015°54'5 9.9
2018-Apr-17 12:00N 55°55' E 016°02'5 9.8
2018-Apr-17 11:30N 55°58' E 016°10'5 9.8
2018-Apr-17 11:01N 56°00' E 016°17'5 9.8
2018-Apr-17 10:30N 56°03' E 016°25'5 9.8
2018-Apr-17 10:00N 56°05' E 016°32'8 9.6
2018-Apr-17 09:08N 56°10' E 016°45'1 9.8
2018-Apr-17 09:00N 56°11' E 016°45'149 9.8
2018-Apr-16 17:48N 58°38' E 017°25'4 9.6
2018-Apr-16 17:21N 58°40' E 017°17'4 8.6
2018-Apr-16 16:56N 58°41' E 017°11'1 0.0
2018-Apr-14 23:17N 58°40' E 017°08'3 6.5
2018-Apr-14 22:53N 58°41' E 017°13'510.2
2018-Apr-14 22:23N 58°39' E 017°22'5 9.5
2018-Apr-14 21:51N 58°36' E 017°30'2 6.1
2018-Apr-14 21:30N 58°34' E 017°30'158 9.8
2018-Apr-14 05:28N 55°59' E 016°36'5 9.9
2018-Apr-14 05:00N 55°57' E 016°29'5 9.8
2018-Apr-14 04:30N 55°55' E 016°21'5 9.8
2018-Apr-14 04:00N 55°52' E 016°13'5 9.7
2018-Apr-14 03:30N 55°50' E 016°06'5 9.8
2018-Apr-14 03:00N 55°48' E 015°58'5 9.9
2018-Apr-14 02:30N 55°45' E 015°51'5 9.7
2018-Apr-14 02:00N 55°43' E 015°43'5 9.8
2018-Apr-14 01:30N 55°41' E 015°35'5 9.8
2018-Apr-14 01:00N 55°38' E 015°28'5 9.7
2018-Apr-14 00:30N 55°36' E 015°20'5 9.5
2018-Apr-13 23:59N 55°33' E 015°12'5 9.4
2018-Apr-13 23:29N 55°31' E 015°05'5 9.0
2018-Apr-13 22:57N 55°29' E 014°58'4 9.1
2018-Apr-13 22:30N 55°27' E 014°51'4 8.8
2018-Apr-13 22:00N 55°25' E 014°45'4 8.7
2018-Apr-13 21:30N 55°22' E 014°38'4 8.7
2018-Apr-13 21:00N 55°19' E 014°33'6 8.5
2018-Apr-13 20:21N 55°15' E 014°27'3 8.8
2018-Apr-13 20:00N 55°12' E 014°24'11 8.1
2018-Apr-13 18:37N 55°09' E 014°05'36 7.9
2018-Apr-13 14:05N 55°14' E 013°03'1 8.7
2018-Apr-13 13:56N 55°14' E 013°01'4 8.6
2018-Apr-13 13:30N 55°15' E 012°54'4 8.7
2018-Apr-13 12:59N 55°16' E 012°47'4 8.7
2018-Apr-13 12:30N 55°17' E 012°40'4 8.5
2018-Apr-13 12:00N 55°20' E 012°35'4 9.0
2018-Apr-13 11:31N 55°24' E 012°30'510.0
2018-Apr-13 11:00N 55°26' E 012°22'510.1
2018-Apr-13 10:30N 55°28' E 012°13'1 0.9
2018-Apr-13 09:17N 55°27' E 012°11'0 0.0
2018-Apr-13 09:00N 55°27' E 012°11'0 0.0
2018-Apr-13 08:27N 55°27' E 012°11'0 0.0
2018-Apr-13 05:27N 55°27' E 012°11'0 0.0
2018-Apr-13 04:53N 55°27' E 012°11'0 0.0
2018-Apr-13 00:24N 55°27' E 012°11'0 0.5
2018-Apr-13 00:00N 55°27' E 012°12'1 2.3
2018-Apr-12 23:30N 55°28' E 012°14'3 6.0
2018-Apr-12 23:00N 55°28' E 012°19'1 2.2
2018-Apr-12 22:30N 55°28' E 012°21'3 5.1
2018-Apr-12 22:00N 55°28' E 012°25'3 6.2
2018-Apr-12 21:30N 55°29' E 012°31'4 8.9
2018-Apr-12 21:00N 55°30' E 012°38'4 8.6
2018-Apr-12 20:30N 55°33' E 012°42'4 8.9
2018-Apr-12 20:00N 55°38' E 012°42'5 9.0
2018-Apr-12 19:30N 55°42' E 012°41'4 8.9
2018-Apr-12 19:00N 55°47' E 012°42'4 8.7
2018-Apr-12 18:30N 55°51' E 012°41'5 9.1
2018-Apr-12 18:00N 55°55' E 012°37'5 9.0
2018-Apr-12 17:30N 55°60' E 012°38'4 7.9
2018-Apr-12 17:00N 56°04' E 012°38'4 6.6
2018-Apr-12 16:27N 56°06' E 012°33'  
Track history (hours):
 
Tides and Currents Weather Stations Pressure Air Temp Water Temp Dewpoint Dewpoint Depression Visibility Wind Speed Wind Dir Waves Ship Positions

Pride

Last reported at 2018-Apr-20 16:30 UTC. Time now 2018-Apr-20 16:45 UTC.
Position N 50°40' E 000°36'.

Length 88 m; draft 4.8 m.

Type: Cargo ship. MMSI: 236166000.

Date/timePositionNaut miles runAvg speedWind from/ knotsBaromVisibWave heightAir tempDewpointWater temp
2018-Apr-20 16:30N 50°40' E 000°36'510.0
2018-Apr-20 16:01N 50°43' E 000°42'5 9.4
2018-Apr-20 15:31N 50°45' E 000°48'4 8.8
2018-Apr-20 15:01N 50°48' E 000°54'4 8.4
2018-Apr-20 14:30N 50°50' E 000°60'4 8.2
2018-Apr-20 14:01N 50°53' E 001°05'4 8.4
2018-Apr-20 13:29N 50°56' E 001°10'8 8.7
2018-Apr-20 12:35N 51°01' E 001°20'1 9.5
2018-Apr-20 12:29N 51°01' E 001°21'510.4
2018-Apr-20 12:00N 51°04' E 001°27'612.1
2018-Apr-20 11:31N 51°08' E 001°34'612.7
2018-Apr-20 11:01N 51°12' E 001°42'612.6
2018-Apr-20 10:30N 51°18' E 001°48'612.5
2018-Apr-20 10:00N 51°23' E 001°52'611.3
2018-Apr-20 09:30N 51°28' E 001°57'510.8
2018-Apr-20 09:00N 51°32' E 002°03'510.2
2018-Apr-20 08:29N 51°36' E 002°08'5 9.6
2018-Apr-20 07:59N 51°40' E 002°14'4 9.4
2018-Apr-20 07:30N 51°43' E 002°18'4 8.9
2018-Apr-20 07:00N 51°47' E 002°23'4 8.6
2018-Apr-20 06:30N 51°50' E 002°28'134 9.2
2018-Apr-19 16:00N 53°32' E 004°50'104 9.9
2018-Apr-19 05:31N 54°01' E 007°38'611.2
2018-Apr-19 05:00N 54°02' E 007°48'611.2
2018-Apr-19 04:30N 54°02' E 007°57'611.4
2018-Apr-19 03:59N 54°01' E 008°07'611.7
2018-Apr-19 03:28N 54°01' E 008°17'612.2
2018-Apr-19 03:00N 53°59' E 008°27'510.6
2018-Apr-19 02:30N 53°58' E 008°36'4 8.3
2018-Apr-19 02:00N 53°55' E 008°41'4 8.0
2018-Apr-19 01:30N 53°52' E 008°44'3 6.8
2018-Apr-19 01:00N 53°51' E 008°50'4 7.3
2018-Apr-19 00:30N 53°51' E 008°56'3 6.6
2018-Apr-19 00:00N 53°52' E 009°01'4 7.6
2018-Apr-18 23:30N 53°53' E 009°07'1 2.1
2018-Apr-18 23:00N 53°54' E 009°09'0 0.8
2018-Apr-18 22:30N 53°54' E 009°09'0 0.0
2018-Apr-18 22:00N 53°54' E 009°09'0 0.0
2018-Apr-18 21:30N 53°54' E 009°09'2 3.4
2018-Apr-18 21:00N 53°55' E 009°11'4 8.7
2018-Apr-18 20:30N 53°58' E 009°16'4 8.4
2018-Apr-18 20:00N 54°02' E 009°18'5 8.3
2018-Apr-18 19:24N 54°07' E 009°20'2 6.1
2018-Apr-18 19:00N 54°09' E 009°22'4 7.4
2018-Apr-18 18:31N 54°11' E 009°28'4 8.2
2018-Apr-18 18:01N 54°13' E 009°34'4 8.0
2018-Apr-18 17:30N 54°16' E 009°38'4 7.6
2018-Apr-18 17:00N 54°18' E 009°43'35 5.7
2018-Apr-18 10:54N 54°35' E 010°36'4 9.5
2018-Apr-18 10:31N 54°35' E 010°42'5 9.6
2018-Apr-18 10:00N 54°35' E 010°51'5 9.4
2018-Apr-18 09:30N 54°36' E 010°59'5 9.5
2018-Apr-18 09:00N 54°36' E 011°07'5 9.5
2018-Apr-18 08:30N 54°35' E 011°15'5 9.5
2018-Apr-18 08:00N 54°33' E 011°22'5 9.7
2018-Apr-18 07:31N 54°31' E 011°30'5 9.4
2018-Apr-18 07:01N 54°29' E 011°37'5 9.3
2018-Apr-18 06:31N 54°27' E 011°44'9 9.2
2018-Apr-18 05:30N 54°27' E 012°00'5 9.4
2018-Apr-18 05:00N 54°27' E 012°08'5 9.2
2018-Apr-18 04:30N 54°31' E 012°12'5 9.9
2018-Apr-18 04:00N 54°36' E 012°14'63 9.6
2018-Apr-17 21:25N 55°03' E 013°53'5 9.6
2018-Apr-17 20:57N 55°04' E 014°01'4 9.5
2018-Apr-17 20:29N 55°07' E 014°07'5 9.8
2018-Apr-17 20:00N 55°11' E 014°12'5 9.8
2018-Apr-17 19:30N 55°14' E 014°18'610.0
2018-Apr-17 18:51N 55°20' E 014°25'410.0
2018-Apr-17 18:27N 55°23' E 014°29'5 9.9
2018-Apr-17 18:00N 55°26' E 014°34'6 9.6
2018-Apr-17 17:24N 55°29' E 014°42'4 9.3
2018-Apr-17 17:00N 55°31' E 014°48'5 9.5
2018-Apr-17 16:30N 55°34' E 014°55'5 9.5
2018-Apr-17 15:56N 55°36' E 015°03'5 9.6
2018-Apr-17 15:28N 55°38' E 015°10'4 9.5
2018-Apr-17 15:00N 55°41' E 015°17'5 9.6
2018-Apr-17 14:30N 55°43' E 015°24'5 9.7
2018-Apr-17 14:01N 55°45' E 015°32'5 9.8
2018-Apr-17 13:31N 55°48' E 015°39'5 9.7
2018-Apr-17 13:01N 55°50' E 015°47'5 9.9
2018-Apr-17 12:31N 55°53' E 015°54'5 9.9
2018-Apr-17 12:00N 55°55' E 016°02'5 9.8
2018-Apr-17 11:30N 55°58' E 016°10'5 9.8
2018-Apr-17 11:01N 56°00' E 016°17'5 9.8
2018-Apr-17 10:30N 56°03' E 016°25'5 9.8
2018-Apr-17 10:00N 56°05' E 016°32'8 9.6
2018-Apr-17 09:08N 56°10' E 016°45'1 9.8
2018-Apr-17 09:00N 56°11' E 016°45'149 9.8
2018-Apr-16 17:48N 58°38' E 017°25'4 9.6
2018-Apr-16 17:21N 58°40' E 017°17'4 8.6
2018-Apr-16 16:56N 58°41' E 017°11'1 0.0
2018-Apr-14 23:17N 58°40' E 017°08'3 6.5
2018-Apr-14 22:53N 58°41' E 017°13'510.2
2018-Apr-14 22:23N 58°39' E 017°22'5 9.5
2018-Apr-14 21:51N 58°36' E 017°30'2 6.1
2018-Apr-14 21:30N 58°34' E 017°30'158 9.8
2018-Apr-14 05:28N 55°59' E 016°36'5 9.9
2018-Apr-14 05:00N 55°57' E 016°29'5 9.8
2018-Apr-14 04:30N 55°55' E 016°21'5 9.8
2018-Apr-14 04:00N 55°52' E 016°13'5 9.7
2018-Apr-14 03:30N 55°50' E 016°06'5 9.8
2018-Apr-14 03:00N 55°48' E 015°58'5 9.9
2018-Apr-14 02:30N 55°45' E 015°51'5 9.7
2018-Apr-14 02:00N 55°43' E 015°43'5 9.8
2018-Apr-14 01:30N 55°41' E 015°35'5 9.8
2018-Apr-14 01:00N 55°38' E 015°28'5 9.7
2018-Apr-14 00:30N 55°36' E 015°20'5 9.5
2018-Apr-13 23:59N 55°33' E 015°12'5 9.4
2018-Apr-13 23:29N 55°31' E 015°05'5 9.0
2018-Apr-13 22:57N 55°29' E 014°58'4 9.1
2018-Apr-13 22:30N 55°27' E 014°51'4 8.8
2018-Apr-13 22:00N 55°25' E 014°45'4 8.7
2018-Apr-13 21:30N 55°22' E 014°38'4 8.7
2018-Apr-13 21:00N 55°19' E 014°33'6 8.5
2018-Apr-13 20:21N 55°15' E 014°27'3 8.8
2018-Apr-13 20:00N 55°12' E 014°24'11 8.1
2018-Apr-13 18:37N 55°09' E 014°05'36 7.9
2018-Apr-13 14:05N 55°14' E 013°03'1 8.7
2018-Apr-13 13:56N 55°14' E 013°01'4 8.6
2018-Apr-13 13:30N 55°15' E 012°54'4 8.7
2018-Apr-13 12:59N 55°16' E 012°47'4 8.7
2018-Apr-13 12:30N 55°17' E 012°40'4 8.5
2018-Apr-13 12:00N 55°20' E 012°35'4 9.0
2018-Apr-13 11:31N 55°24' E 012°30'510.0
2018-Apr-13 11:00N 55°26' E 012°22'510.1
2018-Apr-13 10:30N 55°28' E 012°13'1 0.9
2018-Apr-13 09:17N 55°27' E 012°11'0 0.0
2018-Apr-13 09:00N 55°27' E 012°11'0 0.0
2018-Apr-13 08:27N 55°27' E 012°11'0 0.0
2018-Apr-13 05:27N 55°27' E 012°11'0 0.0
2018-Apr-13 04:53N 55°27' E 012°11'0 0.0
2018-Apr-13 00:24N 55°27' E 012°11'0 0.5
2018-Apr-13 00:00N 55°27' E 012°12'1 2.3
2018-Apr-12 23:30N 55°28' E 012°14'3 6.0
2018-Apr-12 23:00N 55°28' E 012°19'1 2.2
2018-Apr-12 22:30N 55°28' E 012°21'3 5.1
2018-Apr-12 22:00N 55°28' E 012°25'3 6.2
2018-Apr-12 21:30N 55°29' E 012°31'4 8.9
2018-Apr-12 21:00N 55°30' E 012°38'4 8.6
2018-Apr-12 20:30N 55°33' E 012°42'4 8.9
2018-Apr-12 20:00N 55°38' E 012°42'5 9.0
2018-Apr-12 19:30N 55°42' E 012°41'4 8.9
2018-Apr-12 19:00N 55°47' E 012°42'4 8.7
2018-Apr-12 18:30N 55°51' E 012°41'5 9.1
2018-Apr-12 18:00N 55°55' E 012°37'5 9.0
2018-Apr-12 17:30N 55°60' E 012°38'4 7.9
2018-Apr-12 17:00N 56°04' E 012°38'4 6.6
2018-Apr-12 16:27N 56°06' E 012°33'  

Dump ship's entire track history